sensor_id;sensor_type;location;lat;lon;timestamp;P1;durP1;ratioP1;P2;durP2;ratioP2
12334;SDS011;6233;51.560;9.986;2023-05-07T00:02:23;28.53;;;21.27;;
12334;SDS011;6233;51.560;9.986;2023-05-07T00:05:25;28.43;;;21.97;;
12334;SDS011;6233;51.560;9.986;2023-05-07T00:08:27;29.67;;;22.50;;
12334;SDS011;6233;51.560;9.986;2023-05-07T00:11:28;30.40;;;23.30;;
12334;SDS011;6233;51.560;9.986;2023-05-07T00:14:30;29.77;;;22.33;;
12334;SDS011;6233;51.560;9.986;2023-05-07T00:17:32;30.53;;;22.80;;
12334;SDS011;6233;51.560;9.986;2023-05-07T00:20:37;31.47;;;22.87;;
12334;SDS011;6233;51.560;9.986;2023-05-07T00:23:39;29.17;;;21.87;;
12334;SDS011;6233;51.560;9.986;2023-05-07T00:26:40;28.33;;;22.87;;
12334;SDS011;6233;51.560;9.986;2023-05-07T00:29:42;29.57;;;22.43;;
12334;SDS011;6233;51.560;9.986;2023-05-07T00:32:44;30.30;;;23.77;;
12334;SDS011;6233;51.560;9.986;2023-05-07T00:35:50;29.13;;;21.97;;
12334;SDS011;6233;51.560;9.986;2023-05-07T00:38:51;34.93;;;24.27;;
12334;SDS011;6233;51.560;9.986;2023-05-07T00:41:54;28.07;;;22.90;;
12334;SDS011;6233;51.560;9.986;2023-05-07T00:44:56;32.63;;;24.00;;
12334;SDS011;6233;51.560;9.986;2023-05-07T00:47:59;29.93;;;22.77;;
12334;SDS011;6233;51.560;9.986;2023-05-07T00:51:02;28.87;;;21.97;;
12334;SDS011;6233;51.560;9.986;2023-05-07T00:54:04;31.17;;;23.47;;
12334;SDS011;6233;51.560;9.986;2023-05-07T00:57:06;35.07;;;24.63;;
12334;SDS011;6233;51.560;9.986;2023-05-07T01:00:08;32.97;;;22.87;;
12334;SDS011;6233;51.560;9.986;2023-05-07T01:03:11;31.13;;;23.47;;
12334;SDS011;6233;51.560;9.986;2023-05-07T01:06:13;30.57;;;23.13;;
12334;SDS011;6233;51.560;9.986;2023-05-07T01:09:19;32.17;;;22.33;;
12334;SDS011;6233;51.560;9.986;2023-05-07T01:12:21;28.20;;;22.73;;
12334;SDS011;6233;51.560;9.986;2023-05-07T01:15:24;31.07;;;22.27;;
12334;SDS011;6233;51.560;9.986;2023-05-07T01:18:26;29.63;;;21.97;;
12334;SDS011;6233;51.560;9.986;2023-05-07T01:21:27;30.40;;;22.30;;
12334;SDS011;6233;51.560;9.986;2023-05-07T01:24:33;28.90;;;22.23;;
12334;SDS011;6233;51.560;9.986;2023-05-07T01:27:37;31.60;;;23.53;;
12334;SDS011;6233;51.560;9.986;2023-05-07T01:30:39;30.33;;;22.00;;
12334;SDS011;6233;51.560;9.986;2023-05-07T01:33:44;31.13;;;23.17;;
12334;SDS011;6233;51.560;9.986;2023-05-07T01:36:49;29.90;;;22.30;;
12334;SDS011;6233;51.560;9.986;2023-05-07T01:39:52;32.00;;;23.27;;
12334;SDS011;6233;51.560;9.986;2023-05-07T01:42:54;31.80;;;23.10;;
12334;SDS011;6233;51.560;9.986;2023-05-07T01:45:57;29.43;;;21.80;;
12334;SDS011;6233;51.560;9.986;2023-05-07T01:49:00;30.33;;;21.30;;
12334;SDS011;6233;51.560;9.986;2023-05-07T01:52:02;29.07;;;21.63;;
12334;SDS011;6233;51.560;9.986;2023-05-07T01:55:04;29.83;;;21.40;;
12334;SDS011;6233;51.560;9.986;2023-05-07T01:58:06;28.07;;;20.53;;
12334;SDS011;6233;51.560;9.986;2023-05-07T02:01:08;29.77;;;21.43;;
12334;SDS011;6233;51.560;9.986;2023-05-07T02:04:10;28.93;;;20.97;;
12334;SDS011;6233;51.560;9.986;2023-05-07T02:07:12;28.13;;;19.93;;
12334;SDS011;6233;51.560;9.986;2023-05-07T02:10:13;29.10;;;21.83;;
12334;SDS011;6233;51.560;9.986;2023-05-07T02:13:15;28.70;;;21.07;;
12334;SDS011;6233;51.560;9.986;2023-05-07T02:16:17;26.03;;;19.37;;
12334;SDS011;6233;51.560;9.986;2023-05-07T02:19:20;28.23;;;20.67;;
12334;SDS011;6233;51.560;9.986;2023-05-07T02:22:22;30.00;;;20.63;;
12334;SDS011;6233;51.560;9.986;2023-05-07T02:25:24;24.33;;;19.87;;
12334;SDS011;6233;51.560;9.986;2023-05-07T02:28:25;25.13;;;18.93;;
12334;SDS011;6233;51.560;9.986;2023-05-07T02:31:27;27.93;;;20.87;;
12334;SDS011;6233;51.560;9.986;2023-05-07T02:34:29;27.00;;;20.80;;
12334;SDS011;6233;51.560;9.986;2023-05-07T02:37:31;25.93;;;19.50;;
12334;SDS011;6233;51.560;9.986;2023-05-07T02:40:32;26.40;;;19.23;;
12334;SDS011;6233;51.560;9.986;2023-05-07T02:43:34;29.50;;;20.33;;
12334;SDS011;6233;51.560;9.986;2023-05-07T02:46:36;26.17;;;19.40;;
12334;SDS011;6233;51.560;9.986;2023-05-07T02:49:38;26.77;;;19.93;;
12334;SDS011;6233;51.560;9.986;2023-05-07T02:52:40;25.73;;;19.20;;
12334;SDS011;6233;51.560;9.986;2023-05-07T02:55:56;28.93;;;19.47;;
12334;SDS011;6233;51.560;9.986;2023-05-07T02:58:58;26.63;;;20.10;;
12334;SDS011;6233;51.560;9.986;2023-05-07T03:02:00;29.83;;;20.20;;
12334;SDS011;6233;51.560;9.986;2023-05-07T03:05:02;24.60;;;19.47;;
12334;SDS011;6233;51.560;9.986;2023-05-07T03:08:04;25.17;;;19.07;;
12334;SDS011;6233;51.560;9.986;2023-05-07T03:11:06;25.73;;;19.13;;
12334;SDS011;6233;51.560;9.986;2023-05-07T03:14:08;24.53;;;20.23;;
12334;SDS011;6233;51.560;9.986;2023-05-07T03:17:09;28.43;;;20.13;;
12334;SDS011;6233;51.560;9.986;2023-05-07T03:20:11;28.50;;;20.23;;
12334;SDS011;6233;51.560;9.986;2023-05-07T03:23:14;26.37;;;19.77;;
12334;SDS011;6233;51.560;9.986;2023-05-07T03:26:16;25.77;;;19.67;;
12334;SDS011;6233;51.560;9.986;2023-05-07T03:29:18;27.13;;;20.03;;
12334;SDS011;6233;51.560;9.986;2023-05-07T03:32:19;25.87;;;19.90;;
12334;SDS011;6233;51.560;9.986;2023-05-07T03:35:21;26.70;;;20.10;;
12334;SDS011;6233;51.560;9.986;2023-05-07T03:38:23;26.83;;;20.07;;
12334;SDS011;6233;51.560;9.986;2023-05-07T03:41:25;25.13;;;18.87;;
12334;SDS011;6233;51.560;9.986;2023-05-07T03:44:27;24.93;;;18.93;;
12334;SDS011;6233;51.560;9.986;2023-05-07T03:47:28;22.73;;;17.37;;
12334;SDS011;6233;51.560;9.986;2023-05-07T03:50:30;23.60;;;18.13;;
12334;SDS011;6233;51.560;9.986;2023-05-07T03:53:32;26.50;;;18.87;;
12334;SDS011;6233;51.560;9.986;2023-05-07T03:56:34;24.73;;;17.80;;
12334;SDS011;6233;51.560;9.986;2023-05-07T03:59:36;25.67;;;18.50;;
12334;SDS011;6233;51.560;9.986;2023-05-07T04:02:37;24.90;;;18.43;;
12334;SDS011;6233;51.560;9.986;2023-05-07T04:05:39;23.10;;;18.07;;
12334;SDS011;6233;51.560;9.986;2023-05-07T04:08:42;23.33;;;17.50;;
12334;SDS011;6233;51.560;9.986;2023-05-07T04:11:43;22.73;;;17.13;;
12334;SDS011;6233;51.560;9.986;2023-05-07T04:14:45;24.43;;;17.57;;
12334;SDS011;6233;51.560;9.986;2023-05-07T04:17:47;23.37;;;16.87;;
12334;SDS011;6233;51.560;9.986;2023-05-07T04:20:48;23.93;;;16.83;;
12334;SDS011;6233;51.560;9.986;2023-05-07T04:23:51;22.47;;;16.97;;
12334;SDS011;6233;51.560;9.986;2023-05-07T04:26:52;22.23;;;15.37;;
12334;SDS011;6233;51.560;9.986;2023-05-07T04:29:54;23.77;;;16.60;;
12334;SDS011;6233;51.560;9.986;2023-05-07T04:32:57;22.93;;;16.63;;
12334;SDS011;6233;51.560;9.986;2023-05-07T04:36:01;22.37;;;16.07;;
12334;SDS011;6233;51.560;9.986;2023-05-07T04:39:04;20.77;;;15.03;;
12334;SDS011;6233;51.560;9.986;2023-05-07T04:42:05;23.77;;;16.53;;
12334;SDS011;6233;51.560;9.986;2023-05-07T04:45:09;21.03;;;14.97;;
12334;SDS011;6233;51.560;9.986;2023-05-07T04:48:11;20.77;;;15.07;;
12334;SDS011;6233;51.560;9.986;2023-05-07T04:51:15;21.00;;;14.97;;
12334;SDS011;6233;51.560;9.986;2023-05-07T04:54:17;21.37;;;16.03;;
12334;SDS011;6233;51.560;9.986;2023-05-07T04:57:19;22.93;;;16.30;;
12334;SDS011;6233;51.560;9.986;2023-05-07T05:00:21;22.80;;;15.80;;
12334;SDS011;6233;51.560;9.986;2023-05-07T05:03:23;23.60;;;16.40;;
12334;SDS011;6233;51.560;9.986;2023-05-07T05:06:26;24.40;;;16.23;;
12334;SDS011;6233;51.560;9.986;2023-05-07T05:09:27;26.50;;;16.53;;
12334;SDS011;6233;51.560;9.986;2023-05-07T05:12:29;23.77;;;17.63;;
12334;SDS011;6233;51.560;9.986;2023-05-07T05:15:31;26.63;;;16.43;;
12334;SDS011;6233;51.560;9.986;2023-05-07T05:18:34;21.70;;;15.73;;
12334;SDS011;6233;51.560;9.986;2023-05-07T05:21:36;24.50;;;16.50;;
12334;SDS011;6233;51.560;9.986;2023-05-07T05:24:37;23.60;;;16.67;;
12334;SDS011;6233;51.560;9.986;2023-05-07T05:27:39;25.13;;;16.80;;
12334;SDS011;6233;51.560;9.986;2023-05-07T05:30:41;22.03;;;16.37;;
12334;SDS011;6233;51.560;9.986;2023-05-07T05:33:43;20.00;;;14.80;;
12334;SDS011;6233;51.560;9.986;2023-05-07T05:36:45;20.83;;;15.13;;
12334;SDS011;6233;51.560;9.986;2023-05-07T05:39:46;20.77;;;15.63;;
12334;SDS011;6233;51.560;9.986;2023-05-07T05:42:48;20.63;;;14.87;;
12334;SDS011;6233;51.560;9.986;2023-05-07T05:45:50;20.30;;;14.60;;
12334;SDS011;6233;51.560;9.986;2023-05-07T05:48:52;21.23;;;14.70;;
12334;SDS011;6233;51.560;9.986;2023-05-07T05:51:53;20.73;;;15.20;;
12334;SDS011;6233;51.560;9.986;2023-05-07T05:54:56;19.60;;;14.77;;
12334;SDS011;6233;51.560;9.986;2023-05-07T05:57:59;20.07;;;14.57;;
12334;SDS011;6233;51.560;9.986;2023-05-07T06:01:02;20.57;;;14.40;;
12334;SDS011;6233;51.560;9.986;2023-05-07T06:04:04;19.33;;;14.17;;
12334;SDS011;6233;51.560;9.986;2023-05-07T06:07:06;18.97;;;14.20;;
12334;SDS011;6233;51.560;9.986;2023-05-07T06:10:07;20.20;;;14.37;;
12334;SDS011;6233;51.560;9.986;2023-05-07T06:13:10;19.43;;;14.40;;
12334;SDS011;6233;51.560;9.986;2023-05-07T06:16:11;19.57;;;14.27;;
12334;SDS011;6233;51.560;9.986;2023-05-07T06:19:13;18.73;;;14.10;;
12334;SDS011;6233;51.560;9.986;2023-05-07T06:22:15;19.30;;;14.07;;
12334;SDS011;6233;51.560;9.986;2023-05-07T06:25:24;18.47;;;13.53;;
12334;SDS011;6233;51.560;9.986;2023-05-07T06:28:26;14.90;;;11.67;;
12334;SDS011;6233;51.560;9.986;2023-05-07T06:31:29;14.80;;;11.00;;
12334;SDS011;6233;51.560;9.986;2023-05-07T06:34:35;16.57;;;10.33;;
12334;SDS011;6233;51.560;9.986;2023-05-07T06:37:38;16.33;;;11.00;;
12334;SDS011;6233;51.560;9.986;2023-05-07T06:40:40;12.93;;;9.90;;
12334;SDS011;6233;51.560;9.986;2023-05-07T06:43:42;14.60;;;10.43;;
12334;SDS011;6233;51.560;9.986;2023-05-07T06:46:44;14.37;;;11.07;;
12334;SDS011;6233;51.560;9.986;2023-05-07T06:49:46;14.30;;;10.30;;
12334;SDS011;6233;51.560;9.986;2023-05-07T06:52:48;12.73;;;9.50;;
12334;SDS011;6233;51.560;9.986;2023-05-07T06:55:49;14.60;;;10.57;;
12334;SDS011;6233;51.560;9.986;2023-05-07T06:58:51;14.63;;;9.67;;
12334;SDS011;6233;51.560;9.986;2023-05-07T07:01:53;14.93;;;10.63;;
12334;SDS011;6233;51.560;9.986;2023-05-07T07:04:56;15.30;;;9.80;;
12334;SDS011;6233;51.560;9.986;2023-05-07T07:07:58;12.00;;;9.27;;
12334;SDS011;6233;51.560;9.986;2023-05-07T07:10:59;14.60;;;10.53;;
12334;SDS011;6233;51.560;9.986;2023-05-07T07:14:01;14.53;;;9.87;;
12334;SDS011;6233;51.560;9.986;2023-05-07T07:17:03;16.03;;;10.37;;
12334;SDS011;6233;51.560;9.986;2023-05-07T07:20:06;16.33;;;9.80;;
12334;SDS011;6233;51.560;9.986;2023-05-07T07:23:11;15.73;;;10.87;;
12334;SDS011;6233;51.560;9.986;2023-05-07T07:26:13;13.97;;;9.90;;
12334;SDS011;6233;51.560;9.986;2023-05-07T07:29:15;13.47;;;9.80;;
12334;SDS011;6233;51.560;9.986;2023-05-07T07:32:17;15.17;;;10.50;;
12334;SDS011;6233;51.560;9.986;2023-05-07T07:35:18;14.57;;;10.87;;
12334;SDS011;6233;51.560;9.986;2023-05-07T07:38:20;15.57;;;10.47;;
12334;SDS011;6233;51.560;9.986;2023-05-07T07:41:22;16.47;;;11.07;;
12334;SDS011;6233;51.560;9.986;2023-05-07T07:44:24;14.67;;;11.00;;
12334;SDS011;6233;51.560;9.986;2023-05-07T07:47:26;16.47;;;11.10;;
12334;SDS011;6233;51.560;9.986;2023-05-07T07:50:28;14.93;;;11.43;;
12334;SDS011;6233;51.560;9.986;2023-05-07T07:53:45;14.17;;;11.73;;
12334;SDS011;6233;51.560;9.986;2023-05-07T07:56:47;15.83;;;11.30;;
12334;SDS011;6233;51.560;9.986;2023-05-07T07:59:49;16.70;;;11.60;;
12334;SDS011;6233;51.560;9.986;2023-05-07T08:02:51;15.80;;;11.27;;
12334;SDS011;6233;51.560;9.986;2023-05-07T08:05:53;16.73;;;11.53;;
12334;SDS011;6233;51.560;9.986;2023-05-07T08:08:55;14.10;;;10.40;;
12334;SDS011;6233;51.560;9.986;2023-05-07T08:11:57;15.30;;;11.33;;
12334;SDS011;6233;51.560;9.986;2023-05-07T08:14:58;14.07;;;11.07;;
12334;SDS011;6233;51.560;9.986;2023-05-07T08:18:01;13.70;;;9.93;;
12334;SDS011;6233;51.560;9.986;2023-05-07T08:21:03;15.37;;;10.60;;
12334;SDS011;6233;51.560;9.986;2023-05-07T08:24:05;13.57;;;9.47;;
12334;SDS011;6233;51.560;9.986;2023-05-07T08:27:07;16.37;;;11.57;;
12334;SDS011;6233;51.560;9.986;2023-05-07T08:30:09;14.83;;;10.40;;
12334;SDS011;6233;51.560;9.986;2023-05-07T08:33:11;13.87;;;10.63;;
12334;SDS011;6233;51.560;9.986;2023-05-07T08:36:13;15.50;;;11.03;;
12334;SDS011;6233;51.560;9.986;2023-05-07T08:39:15;14.93;;;11.13;;
12334;SDS011;6233;51.560;9.986;2023-05-07T08:42:18;15.20;;;11.73;;
12334;SDS011;6233;51.560;9.986;2023-05-07T08:45:24;16.03;;;11.80;;
12334;SDS011;6233;51.560;9.986;2023-05-07T08:48:28;16.07;;;12.63;;
12334;SDS011;6233;51.560;9.986;2023-05-07T08:51:32;14.63;;;11.33;;
12334;SDS011;6233;51.560;9.986;2023-05-07T08:54:33;15.13;;;11.47;;
12334;SDS011;6233;51.560;9.986;2023-05-07T08:57:38;15.93;;;12.43;;
12334;SDS011;6233;51.560;9.986;2023-05-07T09:04:01;16.27;;;12.80;;
12334;SDS011;6233;51.560;9.986;2023-05-07T09:07:03;15.57;;;12.87;;
12334;SDS011;6233;51.560;9.986;2023-05-07T09:10:06;15.53;;;12.37;;
12334;SDS011;6233;51.560;9.986;2023-05-07T09:13:09;15.80;;;12.80;;
12334;SDS011;6233;51.560;9.986;2023-05-07T09:16:15;17.67;;;13.70;;
12334;SDS011;6233;51.560;9.986;2023-05-07T09:19:21;18.40;;;13.97;;
12334;SDS011;6233;51.560;9.986;2023-05-07T09:22:26;18.20;;;13.87;;
12334;SDS011;6233;51.560;9.986;2023-05-07T09:25:31;17.87;;;13.63;;
12334;SDS011;6233;51.560;9.986;2023-05-07T09:28:34;18.17;;;14.13;;
12334;SDS011;6233;51.560;9.986;2023-05-07T09:31:36;18.77;;;14.63;;
12334;SDS011;6233;51.560;9.986;2023-05-07T09:34:39;17.40;;;14.10;;
12334;SDS011;6233;51.560;9.986;2023-05-07T09:37:40;18.70;;;14.30;;
12334;SDS011;6233;51.560;9.986;2023-05-07T09:40:42;19.67;;;15.07;;
12334;SDS011;6233;51.560;9.986;2023-05-07T09:43:44;19.40;;;14.83;;
12334;SDS011;6233;51.560;9.986;2023-05-07T09:46:46;19.67;;;15.87;;
12334;SDS011;6233;51.560;9.986;2023-05-07T09:49:56;19.83;;;15.03;;
12334;SDS011;6233;51.560;9.986;2023-05-07T09:53:01;18.83;;;14.93;;
12334;SDS011;6233;51.560;9.986;2023-05-07T09:56:04;21.27;;;15.10;;
12334;SDS011;6233;51.560;9.986;2023-05-07T09:59:06;20.03;;;16.17;;
12334;SDS011;6233;51.560;9.986;2023-05-07T10:02:11;17.03;;;14.53;;
12334;SDS011;6233;51.560;9.986;2023-05-07T10:05:15;17.90;;;14.70;;
12334;SDS011;6233;51.560;9.986;2023-05-07T10:08:18;19.47;;;15.90;;
12334;SDS011;6233;51.560;9.986;2023-05-07T10:11:21;18.50;;;15.30;;
12334;SDS011;6233;51.560;9.986;2023-05-07T10:14:24;21.40;;;16.33;;
12334;SDS011;6233;51.560;9.986;2023-05-07T10:17:26;22.13;;;15.97;;
12334;SDS011;6233;51.560;9.986;2023-05-07T10:20:28;19.53;;;16.30;;
12334;SDS011;6233;51.560;9.986;2023-05-07T10:23:39;20.10;;;16.03;;
12334;SDS011;6233;51.560;9.986;2023-05-07T10:26:42;17.83;;;15.10;;
12334;SDS011;6233;51.560;9.986;2023-05-07T10:33:07;20.17;;;16.17;;
12334;SDS011;6233;51.560;9.986;2023-05-07T10:36:11;20.50;;;16.33;;
12334;SDS011;6233;51.560;9.986;2023-05-07T10:39:13;21.97;;;17.67;;
12334;SDS011;6233;51.560;9.986;2023-05-07T10:42:15;18.63;;;15.43;;
12334;SDS011;6233;51.560;9.986;2023-05-07T10:45:17;21.47;;;15.80;;
12334;SDS011;6233;51.560;9.986;2023-05-07T10:48:19;20.67;;;16.63;;
12334;SDS011;6233;51.560;9.986;2023-05-07T10:51:30;20.07;;;17.60;;
12334;SDS011;6233;51.560;9.986;2023-05-07T10:54:33;21.10;;;16.20;;
12334;SDS011;6233;51.560;9.986;2023-05-07T10:57:38;20.07;;;16.33;;
12334;SDS011;6233;51.560;9.986;2023-05-07T11:00:41;20.67;;;16.47;;
12334;SDS011;6233;51.560;9.986;2023-05-07T11:07:27;23.93;;;17.50;;
12334;SDS011;6233;51.560;9.986;2023-05-07T11:13:56;21.57;;;16.97;;
12334;SDS011;6233;51.560;9.986;2023-05-07T11:17:02;21.20;;;16.93;;
12334;SDS011;6233;51.560;9.986;2023-05-07T11:20:05;23.67;;;17.83;;
12334;SDS011;6233;51.560;9.986;2023-05-07T11:23:07;23.10;;;17.57;;
12334;SDS011;6233;51.560;9.986;2023-05-07T11:26:09;23.77;;;18.10;;
12334;SDS011;6233;51.560;9.986;2023-05-07T11:29:13;25.50;;;18.60;;
12334;SDS011;6233;51.560;9.986;2023-05-07T11:32:22;22.17;;;17.40;;
12334;SDS011;6233;51.560;9.986;2023-05-07T11:35:33;20.53;;;16.20;;
12334;SDS011;6233;51.560;9.986;2023-05-07T11:38:37;20.67;;;16.53;;
12334;SDS011;6233;51.560;9.986;2023-05-07T11:41:40;19.27;;;16.63;;
12334;SDS011;6233;51.560;9.986;2023-05-07T11:53:31;22.13;;;17.77;;
12334;SDS011;6233;51.560;9.986;2023-05-07T11:56:40;19.43;;;16.10;;
12334;SDS011;6233;51.560;9.986;2023-05-07T11:59:41;19.23;;;16.77;;
12334;SDS011;6233;51.560;9.986;2023-05-07T12:02:45;20.83;;;17.77;;
12334;SDS011;6233;51.560;9.986;2023-05-07T12:05:47;20.53;;;16.83;;
12334;SDS011;6233;51.560;9.986;2023-05-07T12:08:49;20.03;;;16.97;;
12334;SDS011;6233;51.560;9.986;2023-05-07T12:11:51;18.43;;;15.70;;
12334;SDS011;6233;51.560;9.986;2023-05-07T12:14:54;23.67;;;18.37;;
12334;SDS011;6233;51.560;9.986;2023-05-07T12:17:55;19.03;;;16.83;;
12334;SDS011;6233;51.560;9.986;2023-05-07T12:20:57;21.10;;;17.20;;
12334;SDS011;6233;51.560;9.986;2023-05-07T12:24:01;21.87;;;17.47;;
12334;SDS011;6233;51.560;9.986;2023-05-07T12:27:03;19.07;;;16.40;;
12334;SDS011;6233;51.560;9.986;2023-05-07T12:30:05;19.50;;;17.23;;
12334;SDS011;6233;51.560;9.986;2023-05-07T12:33:07;18.97;;;15.73;;
12334;SDS011;6233;51.560;9.986;2023-05-07T12:36:11;19.07;;;16.17;;
12334;SDS011;6233;51.560;9.986;2023-05-07T12:39:13;20.10;;;16.53;;
12334;SDS011;6233;51.560;9.986;2023-05-07T12:42:16;19.13;;;15.77;;
12334;SDS011;6233;51.560;9.986;2023-05-07T12:45:20;20.87;;;16.90;;
12334;SDS011;6233;51.560;9.986;2023-05-07T12:48:31;18.97;;;16.10;;
12334;SDS011;6233;51.560;9.986;2023-05-07T12:51:34;18.37;;;15.97;;
12334;SDS011;6233;51.560;9.986;2023-05-07T12:54:37;19.53;;;16.80;;
12334;SDS011;6233;51.560;9.986;2023-05-07T12:57:43;16.60;;;14.53;;
12334;SDS011;6233;51.560;9.986;2023-05-07T13:00:52;18.33;;;15.80;;
12334;SDS011;6233;51.560;9.986;2023-05-07T13:03:55;18.23;;;15.83;;
12334;SDS011;6233;51.560;9.986;2023-05-07T13:07:01;19.37;;;15.90;;
12334;SDS011;6233;51.560;9.986;2023-05-07T13:10:03;18.23;;;15.93;;
12334;SDS011;6233;51.560;9.986;2023-05-07T13:13:06;18.97;;;16.33;;
12334;SDS011;6233;51.560;9.986;2023-05-07T13:16:08;17.17;;;15.20;;
12334;SDS011;6233;51.560;9.986;2023-05-07T13:19:12;17.40;;;14.97;;
12334;SDS011;6233;51.560;9.986;2023-05-07T13:22:14;17.80;;;15.67;;
12334;SDS011;6233;51.560;9.986;2023-05-07T13:25:15;16.67;;;14.63;;
12334;SDS011;6233;51.560;9.986;2023-05-07T13:28:17;17.30;;;15.03;;
12334;SDS011;6233;51.560;9.986;2023-05-07T13:31:19;18.83;;;15.30;;
12334;SDS011;6233;51.560;9.986;2023-05-07T13:34:22;16.67;;;14.50;;
12334;SDS011;6233;51.560;9.986;2023-05-07T13:37:24;17.03;;;14.83;;
12334;SDS011;6233;51.560;9.986;2023-05-07T13:40:25;17.23;;;15.17;;
12334;SDS011;6233;51.560;9.986;2023-05-07T13:43:27;17.43;;;14.53;;
12334;SDS011;6233;51.560;9.986;2023-05-07T13:46:29;16.37;;;14.10;;
12334;SDS011;6233;51.560;9.986;2023-05-07T13:49:31;16.70;;;14.90;;
12334;SDS011;6233;51.560;9.986;2023-05-07T13:56:31;17.87;;;15.97;;
12334;SDS011;6233;51.560;9.986;2023-05-07T13:59:33;16.63;;;14.30;;
12334;SDS011;6233;51.560;9.986;2023-05-07T14:02:35;16.47;;;14.30;;
12334;SDS011;6233;51.560;9.986;2023-05-07T14:05:37;16.00;;;13.80;;
12334;SDS011;6233;51.560;9.986;2023-05-07T14:08:38;14.70;;;13.20;;
12334;SDS011;6233;51.560;9.986;2023-05-07T14:11:40;16.53;;;14.73;;
12334;SDS011;6233;51.560;9.986;2023-05-07T14:14:42;16.80;;;14.27;;
12334;SDS011;6233;51.560;9.986;2023-05-07T14:17:44;14.73;;;13.20;;
12334;SDS011;6233;51.560;9.986;2023-05-07T14:20:46;17.00;;;14.53;;
12334;SDS011;6233;51.560;9.986;2023-05-07T14:23:49;16.27;;;14.63;;
12334;SDS011;6233;51.560;9.986;2023-05-07T14:26:52;16.20;;;14.60;;
12334;SDS011;6233;51.560;9.986;2023-05-07T14:29:54;14.60;;;13.10;;
12334;SDS011;6233;51.560;9.986;2023-05-07T14:32:56;15.07;;;13.47;;
12334;SDS011;6233;51.560;9.986;2023-05-07T14:35:57;15.20;;;13.60;;
12334;SDS011;6233;51.560;9.986;2023-05-07T14:38:59;14.87;;;13.37;;
12334;SDS011;6233;51.560;9.986;2023-05-07T14:42:01;15.00;;;13.57;;
12334;SDS011;6233;51.560;9.986;2023-05-07T14:45:03;14.80;;;13.37;;
12334;SDS011;6233;51.560;9.986;2023-05-07T14:48:05;14.33;;;12.93;;
12334;SDS011;6233;51.560;9.986;2023-05-07T14:51:07;14.27;;;12.87;;
12334;SDS011;6233;51.560;9.986;2023-05-07T14:54:09;15.10;;;13.03;;
12334;SDS011;6233;51.560;9.986;2023-05-07T14:57:11;15.40;;;13.90;;
12334;SDS011;6233;51.560;9.986;2023-05-07T15:00:15;14.97;;;13.47;;
12334;SDS011;6233;51.560;9.986;2023-05-07T15:03:22;13.07;;;11.87;;
12334;SDS011;6233;51.560;9.986;2023-05-07T15:06:24;13.73;;;12.33;;
12334;SDS011;6233;51.560;9.986;2023-05-07T15:09:27;14.70;;;13.10;;
12334;SDS011;6233;51.560;9.986;2023-05-07T15:12:30;13.87;;;12.20;;
12334;SDS011;6233;51.560;9.986;2023-05-07T15:15:32;12.70;;;11.50;;
12334;SDS011;6233;51.560;9.986;2023-05-07T15:18:34;13.00;;;11.60;;
12334;SDS011;6233;51.560;9.986;2023-05-07T15:21:35;13.93;;;12.53;;
12334;SDS011;6233;51.560;9.986;2023-05-07T15:24:38;13.30;;;12.00;;
12334;SDS011;6233;51.560;9.986;2023-05-07T15:27:39;13.03;;;11.73;;
12334;SDS011;6233;51.560;9.986;2023-05-07T15:30:41;13.97;;;11.87;;
12334;SDS011;6233;51.560;9.986;2023-05-07T15:33:43;12.37;;;11.17;;
12334;SDS011;6233;51.560;9.986;2023-05-07T15:36:45;12.33;;;11.07;;
12334;SDS011;6233;51.560;9.986;2023-05-07T15:39:47;12.50;;;11.20;;
12334;SDS011;6233;51.560;9.986;2023-05-07T15:42:49;12.97;;;11.73;;
12334;SDS011;6233;51.560;9.986;2023-05-07T15:45:55;12.87;;;11.57;;
12334;SDS011;6233;51.560;9.986;2023-05-07T15:48:57;13.50;;;12.20;;
12334;SDS011;6233;51.560;9.986;2023-05-07T15:51:59;12.43;;;11.23;;
12334;SDS011;6233;51.560;9.986;2023-05-07T15:55:04;13.30;;;12.00;;
12334;SDS011;6233;51.560;9.986;2023-05-07T15:58:07;13.13;;;11.80;;
12334;SDS011;6233;51.560;9.986;2023-05-07T16:01:09;14.07;;;12.67;;
12334;SDS011;6233;51.560;9.986;2023-05-07T16:04:10;14.70;;;13.30;;
12334;SDS011;6233;51.560;9.986;2023-05-07T16:07:12;12.70;;;11.50;;
12334;SDS011;6233;51.560;9.986;2023-05-07T16:10:14;12.93;;;11.73;;
12334;SDS011;6233;51.560;9.986;2023-05-07T16:13:16;14.00;;;12.70;;
12334;SDS011;6233;51.560;9.986;2023-05-07T16:16:19;13.17;;;11.77;;
12334;SDS011;6233;51.560;9.986;2023-05-07T16:19:21;11.43;;;10.33;;
12334;SDS011;6233;51.560;9.986;2023-05-07T16:22:41;11.53;;;10.43;;
12334;SDS011;6233;51.560;9.986;2023-05-07T16:25:43;11.33;;;10.27;;
12334;SDS011;6233;51.560;9.986;2023-05-07T16:28:44;11.33;;;10.23;;
12334;SDS011;6233;51.560;9.986;2023-05-07T16:31:46;10.40;;;9.30;;
12334;SDS011;6233;51.560;9.986;2023-05-07T16:34:48;11.50;;;10.30;;
12334;SDS011;6233;51.560;9.986;2023-05-07T16:37:49;11.53;;;10.43;;
12334;SDS011;6233;51.560;9.986;2023-05-07T16:40:51;11.00;;;10.00;;
12334;SDS011;6233;51.560;9.986;2023-05-07T16:43:53;11.53;;;10.43;;
12334;SDS011;6233;51.560;9.986;2023-05-07T16:46:54;11.00;;;9.90;;
12334;SDS011;6233;51.560;9.986;2023-05-07T16:49:56;12.73;;;10.87;;
12334;SDS011;6233;51.560;9.986;2023-05-07T16:53:00;12.67;;;11.47;;
12334;SDS011;6233;51.560;9.986;2023-05-07T16:56:05;12.27;;;11.07;;
12334;SDS011;6233;51.560;9.986;2023-05-07T16:59:06;12.67;;;11.37;;
12334;SDS011;6233;51.560;9.986;2023-05-07T17:02:08;12.83;;;11.53;;
12334;SDS011;6233;51.560;9.986;2023-05-07T17:05:10;13.43;;;11.20;;
12334;SDS011;6233;51.560;9.986;2023-05-07T17:08:12;11.13;;;10.03;;
12334;SDS011;6233;51.560;9.986;2023-05-07T17:11:14;11.80;;;10.60;;
12334;SDS011;6233;51.560;9.986;2023-05-07T17:14:16;10.97;;;9.97;;
12334;SDS011;6233;51.560;9.986;2023-05-07T17:17:18;10.67;;;9.67;;
12334;SDS011;6233;51.560;9.986;2023-05-07T17:20:19;9.83;;;8.93;;
12334;SDS011;6233;51.560;9.986;2023-05-07T17:23:21;10.47;;;9.47;;
12334;SDS011;6233;51.560;9.986;2023-05-07T17:26:23;10.43;;;9.43;;
12334;SDS011;6233;51.560;9.986;2023-05-07T17:29:24;10.27;;;9.20;;
12334;SDS011;6233;51.560;9.986;2023-05-07T17:32:26;10.33;;;9.33;;
12334;SDS011;6233;51.560;9.986;2023-05-07T17:35:29;9.37;;;8.50;;
12334;SDS011;6233;51.560;9.986;2023-05-07T17:38:32;10.10;;;9.10;;
12334;SDS011;6233;51.560;9.986;2023-05-07T17:41:35;10.60;;;9.33;;
12334;SDS011;6233;51.560;9.986;2023-05-07T17:44:37;11.10;;;10.00;;
12334;SDS011;6233;51.560;9.986;2023-05-07T17:47:39;10.93;;;9.70;;
12334;SDS011;6233;51.560;9.986;2023-05-07T17:50:41;10.80;;;9.80;;
12334;SDS011;6233;51.560;9.986;2023-05-07T17:53:44;14.10;;;10.73;;
12334;SDS011;6233;51.560;9.986;2023-05-07T17:56:46;11.60;;;10.07;;
12334;SDS011;6233;51.560;9.986;2023-05-07T17:59:47;12.00;;;10.20;;
12334;SDS011;6233;51.560;9.986;2023-05-07T18:02:52;11.97;;;10.30;;
12334;SDS011;6233;51.560;9.986;2023-05-07T18:05:54;11.37;;;10.17;;
12334;SDS011;6233;51.560;9.986;2023-05-07T18:08:55;11.27;;;9.67;;
12334;SDS011;6233;51.560;9.986;2023-05-07T18:11:57;11.40;;;10.20;;
12334;SDS011;6233;51.560;9.986;2023-05-07T18:15:00;10.97;;;9.80;;
12334;SDS011;6233;51.560;9.986;2023-05-07T18:18:01;9.97;;;8.97;;
12334;SDS011;6233;51.560;9.986;2023-05-07T18:21:03;10.93;;;9.87;;
12334;SDS011;6233;51.560;9.986;2023-05-07T18:24:05;10.47;;;8.97;;
12334;SDS011;6233;51.560;9.986;2023-05-07T18:27:07;10.37;;;9.30;;
12334;SDS011;6233;51.560;9.986;2023-05-07T18:30:09;9.80;;;8.80;;
12334;SDS011;6233;51.560;9.986;2023-05-07T18:33:12;9.30;;;8.37;;